Time;durP1;ratioP1;P1;durP2;ratioP2;P2;SDS_P1;SDS_P2;PMS_P1;PMS_P2;Temp;Humidity;BMP_temperature;BMP_pressure;BME280_temperature;BME280_humidity;BME280_pressure;Samples;Min_cycle;Max_cycle;Signal;HPM_P1;HPM_P2
2023/08/20 00:02:01;;;;;;;13.73;9.90;;;22.70;99.90;;;;;;4950730;28;20448;-90
2023/08/20 00:04:30;;;;;;;13.10;10.47;;;22.60;99.90;;;;;;4965765;28;20209;-89
2023/08/20 00:06:56;;;;;;;13.53;9.97;;;22.50;99.90;;;;;;4948550;28;20436;-88
2023/08/20 00:09:23;;;;;;;14.20;10.50;;;;;;;;;;4953071;28;21141;-88
2023/08/20 00:11:48;;;;;;;15.13;10.80;;;22.50;99.90;;;;;;4943466;28;20727;-89
2023/08/20 00:14:16;;;;;;;15.87;11.20;;;22.50;99.90;;;;;;4961445;28;20454;-89
2023/08/20 00:16:43;;;;;;;12.87;10.90;;;22.50;99.90;;;;;;4963617;28;20574;-88
2023/08/20 00:19:09;;;;;;;11.53;10.07;;;22.40;99.90;;;;;;4957459;28;20464;-87
2023/08/20 00:21:35;;;;;;;19.23;11.67;;;22.50;99.90;;;;;;4971470;23;20530;-85
2023/08/20 00:24:01;;;;;;;17.50;12.17;;;22.50;99.90;;;;;;4982560;28;20462;-84
2023/08/20 00:26:27;;;;;;;19.83;10.83;;;22.50;99.90;;;;;;4999533;28;20440;-85
2023/08/20 00:28:54;;;;;;;13.20;11.33;;;22.60;99.90;;;;;;4974206;28;20206;-83
2023/08/20 00:31:20;;;;;;;20.00;10.57;;;22.70;99.90;;;;;;4974215;28;20435;-87
2023/08/20 00:33:45;;;;;;;13.53;10.00;;;22.70;99.90;;;;;;4970216;28;20438;-86
2023/08/20 00:36:11;;;;;;;15.00;11.00;;;22.70;99.90;;;;;;4976445;28;21061;-87
2023/08/20 00:38:36;;;;;;;13.30;10.80;;;22.70;99.90;;;;;;4962072;28;20298;-84
2023/08/20 00:41:02;;;;;;;14.23;10.70;;;22.70;99.90;;;;;;4972481;28;20192;-86
2023/08/20 00:43:27;;;;;;;17.17;10.10;;;22.70;99.90;;;;;;4967087;28;20682;-85
2023/08/20 00:45:53;;;;;;;16.80;10.57;;;22.70;99.90;;;;;;4967818;28;20368;-88
2023/08/20 00:48:19;;;;;;;16.10;10.40;;;22.70;99.90;;;;;;4968732;28;21847;-88
2023/08/20 00:50:45;;;;;;;15.80;11.90;;;;;;;;;;4968796;28;20310;-84
2023/08/20 00:53:13;;;;;;;11.80;10.00;;;22.70;99.90;;;;;;4970051;28;20192;-84
2023/08/20 00:55:38;;;;;;;17.97;11.30;;;23.30;99.90;;;;;;4965877;28;20451;-86
2023/08/20 00:58:05;;;;;;;16.40;10.50;;;22.60;99.90;;;;;;4967809;28;20989;-87
2023/08/20 01:00:30;;;;;;;16.10;10.53;;;22.60;99.90;;;;;;4973622;28;20276;-84
2023/08/20 01:02:56;;;;;;;15.93;10.70;;;22.50;99.90;;;;;;4969550;28;20451;-84
2023/08/20 01:05:22;;;;;;;14.30;11.90;;;22.30;99.90;;;;;;4983999;28;20227;-85
2023/08/20 01:08:15;;;;;;;11.90;10.20;;;22.10;99.90;;;;;;4968219;28;20219;-86
2023/08/20 01:10:59;;;;;;;12.40;11.10;;;22.10;99.90;;;;;;4965833;28;20246;-85
2023/08/20 01:13:24;;;;;;;13.80;10.80;;;22.00;99.90;;;;;;4968984;28;20469;-84
2023/08/20 01:15:50;;;;;;;16.40;10.80;;;21.90;99.90;;;;;;4979559;28;20459;-82
2023/08/20 01:18:15;;;;;;;14.23;11.20;;;21.90;99.90;;;;;;4982498;28;20219;-86
2023/08/20 01:20:52;;;;;;;17.63;11.77;;;21.90;99.90;;;;;;4967009;28;20188;-84
2023/08/20 01:23:54;;;;;;;17.90;11.10;;;21.90;99.90;;;;;;4969103;28;20191;-85
2023/08/20 01:26:42;;;;;;;19.30;10.40;;;21.90;99.90;;;;;;4968495;28;20959;-84
2023/08/20 01:29:09;;;;;;;19.30;11.00;;;21.90;99.90;;;;;;4953161;28;20510;-84
2023/08/20 01:31:35;;;;;;;13.50;11.40;;;21.90;99.90;;;;;;4968807;28;20439;-86
2023/08/20 01:34:02;;;;;;;20.57;11.80;;;21.80;99.90;;;;;;4967300;28;20442;-84
2023/08/20 01:36:27;;;;;;;12.93;11.50;;;21.70;99.90;;;;;;4974649;28;20195;-83
2023/08/20 01:38:53;;;;;;;22.77;11.87;;;21.80;99.90;;;;;;4967426;28;20457;-84
2023/08/20 01:41:18;;;;;;;18.33;11.93;;;21.80;99.90;;;;;;4970416;28;20195;-87
2023/08/20 01:43:44;;;;;;;17.87;11.23;;;21.70;99.90;;;;;;4965546;28;20195;-87
2023/08/20 01:46:09;;;;;;;20.03;12.50;;;21.70;99.90;;;;;;4975689;28;20211;-85
2023/08/20 01:48:35;;;;;;;16.53;11.80;;;21.70;99.90;;;;;;4972115;28;20211;-87
2023/08/20 01:51:02;;;;;;;19.03;11.73;;;21.70;99.90;;;;;;4975341;28;20713;-83
2023/08/20 01:53:27;;;;;;;13.43;11.60;;;21.70;99.90;;;;;;4972180;28;20474;-84
2023/08/20 01:55:53;;;;;;;15.07;12.13;;;21.70;99.90;;;;;;4970094;28;20470;-86
2023/08/20 01:58:18;;;;;;;19.13;11.90;;;21.60;99.90;;;;;;4967880;28;20459;-85
2023/08/20 02:00:45;;;;;;;20.73;12.40;;;21.50;99.90;;;;;;4965567;28;20179;-86
2023/08/20 02:03:10;;;;;;;16.37;12.67;;;21.40;99.90;;;;;;4968077;28;20192;-85
2023/08/20 02:05:36;;;;;;;17.57;12.20;;;21.40;99.90;;;;;;4973906;28;20542;-86
2023/08/20 02:08:03;;;;;;;13.90;12.50;;;21.50;99.90;;;;;;4968489;28;20206;-85
2023/08/20 02:10:29;;;;;;;15.00;12.33;;;21.50;99.90;;;;;;4969207;28;20439;-87
2023/08/20 02:12:54;;;;;;;15.17;11.20;;;21.50;99.90;;;;;;4964945;28;20446;-85
2023/08/20 02:15:20;;;;;;;14.03;12.10;;;21.50;99.90;;;;;;4965199;28;20179;-84
2023/08/20 02:17:46;;;;;;;13.10;11.40;;;21.50;99.90;;;;;;4965225;28;20275;-84
2023/08/20 02:20:11;;;;;;;13.40;11.73;;;21.50;99.90;;;;;;4967608;28;21213;-88
2023/08/20 02:22:37;;;;;;;17.40;13.70;;;21.40;99.90;;;;;;4972341;28;20278;-87
2023/08/20 02:25:03;;;;;;;14.17;12.07;;;21.30;99.90;;;;;;4977049;28;20203;-84
2023/08/20 02:27:28;;;;;;;18.97;13.60;;;21.30;99.90;;;;;;4967474;28;20214;-86
2023/08/20 02:29:53;;;;;;;18.63;12.43;;;21.20;99.90;;;;;;4972798;28;20279;-84
2023/08/20 02:32:19;;;;;;;15.70;12.30;;;21.30;99.90;;;;;;4971414;28;20270;-84
2023/08/20 02:34:49;;;;;;;20.30;12.10;;;21.30;99.90;;;;;;4970661;28;20194;-86
2023/08/20 02:37:15;;;;;;;20.07;11.77;;;21.30;99.90;;;;;;4974583;28;20199;-86
2023/08/20 02:39:40;;;;;;;21.77;13.03;;;22.60;99.90;;;;;;4976556;28;20449;-82
2023/08/20 02:42:06;;;;;;;16.73;12.07;;;21.10;99.90;;;;;;4981298;28;20225;-85
2023/08/20 02:44:31;;;;;;;15.13;12.70;;;21.00;99.90;;;;;;4968718;28;20309;-87
2023/08/20 02:46:57;;;;;;;18.30;13.27;;;21.00;99.90;;;;;;4972599;28;20195;-84
2023/08/20 02:49:22;;;;;;;14.07;12.50;;;20.90;99.90;;;;;;4966833;28;20183;-86
2023/08/20 02:51:48;;;;;;;14.90;11.97;;;21.00;99.90;;;;;;4968028;28;20664;-86
2023/08/20 02:54:13;;;;;;;14.20;12.13;;;20.90;99.90;;;;;;4968085;28;20186;-87
2023/08/20 02:56:39;;;;;;;18.33;12.50;;;20.90;99.90;;;;;;4963849;28;20735;-84
2023/08/20 02:59:04;;;;;;;15.43;13.30;;;21.00;99.90;;;;;;4965527;28;20208;-86
2023/08/20 03:01:30;;;;;;;20.07;13.83;;;21.00;99.90;;;;;;4968061;28;20188;-87
2023/08/20 03:03:55;;;;;;;16.87;11.70;;;20.90;99.90;;;;;;4969244;28;20208;-86
2023/08/20 03:06:21;;;;;;;21.30;13.87;;;20.90;99.90;;;;;;4967539;28;20186;-85
2023/08/20 03:08:46;;;;;;;17.50;12.80;;;20.90;99.90;;;;;;4967645;28;20200;-86
2023/08/20 03:11:12;;;;;;;16.07;13.23;;;20.80;99.90;;;;;;4971176;28;20185;-86
2023/08/20 03:13:37;;;;;;;21.03;12.43;;;20.80;99.90;;;;;;4966230;28;20649;-84
2023/08/20 03:16:03;;;;;;;16.07;12.73;;;20.80;99.90;;;;;;4967527;28;20176;-87
2023/08/20 03:18:29;;;;;;;18.00;12.40;;;20.70;99.90;;;;;;4966322;28;20199;-86
2023/08/20 03:20:55;;;;;;;14.40;11.77;;;20.60;99.90;;;;;;4970358;28;20191;-85
2023/08/20 03:23:24;;;;;;;14.60;13.00;;;20.80;99.90;;;;;;4968441;28;20671;-87
2023/08/20 03:25:49;;;;;;;20.93;13.63;;;20.60;99.90;;;;;;4969048;28;20954;-86
2023/08/20 03:28:15;;;;;;;15.30;12.63;;;20.60;99.90;;;;;;4973161;28;20527;-85
2023/08/20 03:30:41;;;;;;;18.07;14.27;;;20.60;99.90;;;;;;4968223;28;20184;-87
2023/08/20 03:33:06;;;;;;;18.33;14.00;;;20.60;99.90;;;;;;4972997;28;20539;-85
2023/08/20 03:35:32;;;;;;;16.80;12.83;;;20.60;99.90;;;;;;4972831;28;20976;-87
2023/08/20 03:37:57;;;;;;;15.93;12.90;;;20.60;99.90;;;;;;4973607;28;20203;-87
2023/08/20 03:40:23;;;;;;;16.33;13.77;;;20.60;99.90;;;;;;4972848;28;20214;-87
2023/08/20 03:42:49;;;;;;;18.47;13.60;;;20.60;99.90;;;;;;4976358;28;20262;-85
2023/08/20 03:45:14;;;;;;;16.83;12.60;;;20.50;99.90;;;;;;4978812;28;20471;-85
2023/08/20 03:47:42;;;;;;;14.60;12.43;;;20.60;99.90;;;;;;4980494;28;20249;-87
2023/08/20 03:50:08;;;;;;;17.93;12.97;;;20.60;99.90;;;;;;4972286;28;20257;-87
2023/08/20 03:52:33;;;;;;;18.27;12.97;;;20.60;99.90;;;;;;4977679;28;20509;-87
2023/08/20 03:54:59;;;;;;;15.47;12.77;;;20.70;99.90;;;;;;4969334;28;20218;-86
2023/08/20 03:57:24;;;;;;;17.10;12.10;;;20.70;99.90;;;;;;4972937;28;20207;-88
2023/08/20 03:59:50;;;;;;;18.07;12.73;;;20.70;99.90;;;;;;4972424;28;20695;-85
2023/08/20 04:02:15;;;;;;;16.57;12.70;;;20.50;99.90;;;;;;4976998;28;20187;-84
2023/08/20 04:04:41;;;;;;;15.27;13.20;;;20.50;99.90;;;;;;4985126;28;20219;-85
2023/08/20 04:07:06;;;;;;;18.40;13.17;;;20.40;99.90;;;;;;4976923;28;20366;-85
2023/08/20 04:09:33;;;;;;;21.77;14.87;;;20.60;99.90;;;;;;4975475;28;20183;-85
2023/08/20 04:11:59;;;;;;;17.43;13.83;;;20.30;99.90;;;;;;4977544;28;20172;-86
2023/08/20 04:14:25;;;;;;;15.50;13.00;;;20.30;99.90;;;;;;4983132;28;20816;-85
2023/08/20 04:16:50;;;;;;;18.57;13.97;;;20.20;99.90;;;;;;4967006;28;20183;-85
2023/08/20 04:19:16;;;;;;;20.00;14.53;;;20.20;99.90;;;;;;4970132;28;20215;-86
2023/08/20 04:21:41;;;;;;;21.07;14.20;;;20.30;99.90;;;;;;4973050;28;20223;-86
2023/08/20 04:24:07;;;;;;;19.70;15.23;;;20.30;99.90;;;;;;4976566;28;20209;-87
2023/08/20 04:26:34;;;;;;;15.57;13.30;;;20.30;99.90;;;;;;4971536;28;20423;-86
2023/08/20 04:29:00;;;;;;;18.97;14.37;;;20.20;99.90;;;;;;4974860;28;21758;-86
2023/08/20 04:31:25;;;;;;;18.63;15.27;;;20.20;99.90;;;;;;4977487;28;20427;-87
2023/08/20 04:33:51;;;;;;;17.83;13.10;;;20.30;99.90;;;;;;4976078;28;20453;-86
2023/08/20 04:36:16;;;;;;;18.53;12.43;;;20.30;99.90;;;;;;4982134;28;20180;-85
2023/08/20 04:38:42;;;;;;;22.23;13.13;;;20.40;99.90;;;;;;4984605;28;20234;-88
2023/08/20 04:41:08;;;;;;;18.00;14.00;;;20.50;99.90;;;;;;4984037;28;20183;-85
2023/08/20 04:43:33;;;;;;;15.50;13.40;;;20.60;99.90;;;;;;4972084;28;20190;-86
2023/08/20 04:45:59;;;;;;;17.40;13.27;;;20.90;99.90;;;;;;4967956;28;20207;-86
2023/08/20 04:48:24;;;;;;;23.00;14.80;;;21.00;99.90;;;;;;4972925;28;21104;-84
2023/08/20 04:50:50;;;;;;;19.03;14.17;;;21.00;99.90;;;;;;4973788;28;20194;-83
2023/08/20 04:53:15;;;;;;;23.20;14.87;;;21.10;99.90;;;;;;4968567;28;20195;-85
2023/08/20 04:55:41;;;;;;;14.90;13.33;;;21.60;99.90;;;;;;4979649;28;20243;-84
2023/08/20 04:58:06;;;;;;;16.77;13.27;;;22.40;99.90;;;;;;4979408;28;20204;-85
2023/08/20 05:00:32;;;;;;;14.13;12.10;;;23.10;99.90;;;;;;4976545;28;20222;-86
2023/08/20 05:02:58;;;;;;;14.13;11.07;;;24.00;99.90;;;;;;4974590;28;20200;-84
2023/08/20 05:05:24;;;;;;;15.40;11.80;;;24.80;99.90;;;;;;4977968;28;20207;-85
2023/08/20 05:07:50;;;;;;;17.53;12.83;;;25.40;99.90;;;;;;4972031;28;20461;-82
2023/08/20 05:10:15;;;;;;;20.80;13.63;;;26.00;99.90;;;;;;4979473;28;20447;-83
2023/08/20 05:12:41;;;;;;;17.67;12.83;;;26.70;99.90;;;;;;4981649;28;20213;-90
2023/08/20 05:15:07;;;;;;;15.37;12.50;;;27.40;99.90;;;;;;4979829;28;20206;-86
2023/08/20 05:17:32;;;;;;;15.67;10.10;;;28.20;99.90;;;;;;4978725;28;20298;-84
2023/08/20 05:19:58;;;;;;;12.33;11.10;;;28.70;99.90;;;;;;4983691;28;20269;-88
2023/08/20 05:22:24;;;;;;;16.37;10.03;;;;;;;;;;4974988;28;20260;-85
2023/08/20 05:24:50;;;;;;;11.47;10.37;;;;;;;;;;4975385;28;20247;-88
2023/08/20 05:27:19;;;;;;;10.30;9.37;;;30.00;99.90;;;;;;4981802;28;20463;-82
2023/08/20 05:29:45;;;;;;;10.90;9.83;;;30.60;99.90;;;;;;4967967;28;20487;-85
2023/08/20 05:32:11;;;;;;;14.93;11.37;;;29.50;99.90;;;;;;4975687;28;20449;-84
2023/08/20 05:34:37;;;;;;;18.27;10.90;;;29.10;99.90;;;;;;4980164;28;20461;-83
2023/08/20 05:37:03;;;;;;;11.73;10.63;;;29.30;99.90;;;;;;4979345;28;20218;-87
2023/08/20 05:39:30;;;;;;;14.60;11.93;;;30.60;99.90;;;;;;4975824;28;20179;-87
2023/08/20 05:41:56;;;;;;;16.07;12.00;;;30.40;99.90;;;;;;4975555;28;20443;-83
2023/08/20 05:44:22;;;;;;;14.33;11.80;;;;;;;;;;4974943;28;20467;-82
2023/08/20 05:46:48;;;;;;;23.30;13.13;;;30.90;99.90;;;;;;4979997;28;20242;-86
2023/08/20 05:49:15;;;;;;;19.93;12.50;;;31.50;99.90;;;;;;4966096;28;22475;-85
2023/08/20 05:51:41;;;;;;;16.43;14.60;;;;;;;;;;4974665;28;20503;-84
2023/08/20 05:54:07;;;;;;;16.70;12.80;;;31.90;99.90;;;;;;4977248;28;20442;-82
2023/08/20 05:56:33;;;;;;;13.60;11.73;;;;;;;;;;4973743;28;20537;-83
2023/08/20 05:58:59;;;;;;;17.90;11.67;;;;;;;;;;4975430;28;20442;-85
2023/08/20 06:01:24;;;;;;;16.10;12.10;;;34.00;99.90;;;;;;4972940;28;20945;-87
2023/08/20 06:03:50;;;;;;;16.33;13.83;;;35.10;99.90;;;;;;4972500;28;22553;-84
2023/08/20 06:06:16;;;;;;;13.50;12.27;;;;;;;;;;4972655;28;20198;-82
2023/08/20 06:08:42;;;;;;;14.80;13.30;;;;;;;;;;4976719;28;21170;-85
2023/08/20 06:11:08;;;;;;;13.60;12.20;;;;;;;;;;4978849;28;20452;-85
2023/08/20 06:13:34;;;;;;;15.90;11.83;;;;;;;;;;4973223;28;20525;-86
2023/08/20 06:16:00;;;;;;;12.23;11.13;;;;;;;;;;4974154;28;20465;-84
2023/08/20 06:18:26;;;;;;;13.37;12.17;;;;;;;;;;4972161;28;20521;-85
2023/08/20 06:20:51;;;;;;;14.13;11.63;;;37.40;93.60;;;;;;4973978;28;20211;-86
2023/08/20 06:23:17;;;;;;;14.57;13.07;;;34.90;97.30;;;;;;4977440;28;21128;-83
2023/08/20 06:25:42;;;;;;;20.33;13.30;;;34.30;99.90;;;;;;4985532;28;20225;-84
2023/08/20 06:28:09;;;;;;;14.80;12.30;;;;;;;;;;4975378;28;20708;-86
2023/08/20 06:30:35;;;;;;;15.67;14.00;;;32.90;99.90;;;;;;4974884;28;21210;-88
2023/08/20 06:33:01;;;;;;;16.20;14.50;;;31.90;99.90;;;;;;4970339;28;20430;-83
2023/08/20 06:35:27;;;;;;;15.40;13.83;;;30.80;99.90;;;;;;4976442;28;20784;-87
2023/08/20 06:37:52;;;;;;;16.47;14.03;;;30.20;99.90;;;;;;4985598;28;20251;-89
2023/08/20 06:40:18;;;;;;;16.03;14.30;;;30.20;99.90;;;;;;4978780;28;20208;-88
2023/08/20 06:42:44;;;;;;;15.00;12.83;;;;;;;;;;4981224;28;20239;-84
2023/08/20 06:45:09;;;;;;;14.43;12.93;;;30.20;99.90;;;;;;4978175;28;20226;-85
2023/08/20 06:47:35;;;;;;;14.63;13.20;;;30.40;99.90;;;;;;4984274;28;20441;-81
2023/08/20 06:50:01;;;;;;;13.20;11.80;;;30.60;99.90;;;;;;4976096;28;20189;-83
2023/08/20 06:52:27;;;;;;;14.07;10.77;;;33.00;99.90;;;;;;4969495;28;20244;-83
2023/08/20 06:54:52;;;;;;;12.10;10.93;;;35.70;99.90;;;;;;4971945;28;20438;-84
2023/08/20 06:57:18;;;;;;;13.37;10.80;;;;;;;;;;4973403;28;20204;-84
2023/08/20 06:59:44;;;;;;;10.93;9.93;;;40.30;97.80;;;;;;4975600;28;20276;-85
2023/08/20 07:02:10;;;;;;;12.47;11.27;;;41.80;92.20;;;;;;4984522;28;20535;-85
2023/08/20 07:04:36;;;;;;;18.67;11.13;;;41.40;88.70;;;;;;4982200;28;20245;-84
2023/08/20 07:07:01;;;;;;;12.27;10.90;;;40.20;89.30;;;;;;4983435;28;20446;-86
2023/08/20 07:09:27;;;;;;;13.37;10.83;;;;;;;;;;4977838;28;20702;-87
2023/08/20 07:11:53;;;;;;;11.30;9.90;;;;;;;;;;4980892;28;20226;-87
2023/08/20 07:14:19;;;;;;;10.20;9.20;;;39.10;86.80;;;;;;4977363;28;20537;-86
2023/08/20 07:16:44;;;;;;;12.03;10.83;;;;;;;;;;4977661;28;20225;-83
2023/08/20 07:19:10;;;;;;;12.50;11.30;;;;;;;;;;4979772;28;20195;-87
2023/08/20 07:21:36;;;;;;;18.97;11.77;;;41.50;83.70;;;;;;4980281;28;20449;-86
2023/08/20 07:24:02;;;;;;;14.57;10.90;;;;;;;;;;4977272;28;20480;-85
2023/08/20 07:26:28;;;;;;;13.43;10.90;;;;;;;;;;4974065;28;20187;-85
2023/08/20 07:28:57;;;;;;;12.20;10.33;;;;;;;;;;4973484;28;20458;-84
2023/08/20 07:31:27;;;;;;;11.63;10.60;;;45.10;68.10;;;;;;4975289;28;20446;-86
2023/08/20 07:33:54;;;;;;;15.60;10.37;;;44.90;61.50;;;;;;4971160;28;20510;-87
2023/08/20 07:36:24;;;;;;;11.50;10.30;;;;;;;;;;4979160;28;20453;-84
2023/08/20 07:38:52;;;;;;;12.07;10.50;;;43.20;62.80;;;;;;4974338;28;20505;-84
2023/08/20 07:41:19;;;;;;;13.03;11.57;;;;;;;;;;4977265;28;20473;-85
2023/08/20 07:43:46;;;;;;;14.20;11.23;;;;;;;;;;4985137;28;20457;-87
2023/08/20 07:46:12;;;;;;;13.00;9.63;;;;;;;;;;4981041;28;20458;-85
2023/08/20 07:48:38;;;;;;;11.33;10.20;;;46.20;58.40;;;;;;4978587;28;20715;-85
2023/08/20 07:51:04;;;;;;;13.60;10.33;;;;;;;;;;4971340;28;20879;-84
2023/08/20 07:53:31;;;;;;;10.23;9.33;;;47.80;52.10;;;;;;4989178;28;20421;-86
2023/08/20 07:55:57;;;;;;;14.37;11.50;;;47.60;52.50;;;;;;4987626;28;20558;-90
2023/08/20 07:58:22;;;;;;;14.53;11.07;;;47.70;51.20;;;;;;4984814;28;20469;-85
2023/08/20 08:00:48;;;;;;;13.67;10.33;;;46.30;53.10;;;;;;4982359;28;20191;-83
2023/08/20 08:03:14;;;;;;;11.83;10.70;;;45.50;54.00;;;;;;4986770;28;20679;-85
2023/08/20 08:05:41;;;;;;;16.30;10.63;;;45.40;53.10;;;;;;4971567;28;20226;-88
2023/08/20 08:08:06;;;;;;;14.13;10.40;;;45.30;55.10;;;;;;4978550;28;20482;-85
2023/08/20 08:10:32;;;;;;;14.03;9.47;;;44.70;53.10;;;;;;4973822;28;20513;-83
2023/08/20 08:12:58;;;;;;;13.30;11.20;;;44.40;54.50;;;;;;5000399;28;20174;-87
2023/08/20 08:15:23;;;;;;;10.83;9.40;;;44.60;54.00;;;;;;4979823;28;20179;-86
2023/08/20 08:17:49;;;;;;;14.57;9.20;;;44.70;54.70;;;;;;4981058;28;20208;-87
2023/08/20 08:20:15;;;;;;;11.40;10.40;;;;;;;;;;4981518;28;20182;-86
2023/08/20 08:22:40;;;;;;;11.90;10.73;;;44.20;53.70;;;;;;4988098;28;20227;-85
2023/08/20 08:25:06;;;;;;;12.10;11.10;;;;;;;;;;4975754;28;20279;-86
2023/08/20 08:27:32;;;;;;;13.60;9.30;;;;;;;;;;4976777;28;20214;-85
2023/08/20 08:29:58;;;;;;;16.17;10.50;;;44.40;53.20;;;;;;4975479;28;20970;-84
2023/08/20 08:32:24;;;;;;;13.03;11.53;;;;;;;;;;4975718;28;20184;-86
2023/08/20 08:34:53;;;;;;;14.57;10.90;;;44.20;55.30;;;;;;4991838;28;20278;-86
2023/08/20 08:37:19;;;;;;;13.00;11.20;;;44.40;53.30;;;;;;4986808;28;20508;-91
2023/08/20 08:39:46;;;;;;;16.20;11.83;;;43.80;54.80;;;;;;4983509;28;20433;-89
2023/08/20 08:42:14;;;;;;;17.20;12.37;;;44.90;52.60;;;;;;4984555;28;20434;-91
2023/08/20 08:44:40;;;;;;;13.77;10.87;;;45.30;51.90;;;;;;4982697;28;20473;-89
2023/08/20 08:47:06;;;;;;;12.30;11.20;;;;;;;;;;4978374;28;20510;-89
2023/08/20 08:49:35;;;;;;;15.63;12.47;;;40.50;57.40;;;;;;4973673;28;20425;-90
2023/08/20 08:52:04;;;;;;;15.63;11.40;;;39.70;57.70;;;;;;4964684;28;20442;-89
2023/08/20 08:54:33;;;;;;;19.20;12.17;;;38.50;64.80;;;;;;4974095;28;20438;-88
2023/08/20 08:57:05;;;;;;;14.13;12.27;;;38.30;70.40;;;;;;4976170;28;20458;-88
2023/08/20 08:59:32;;;;;;;13.57;10.73;;;38.20;69.90;;;;;;4981930;28;20446;-88
2023/08/20 09:01:58;;;;;;;13.50;12.23;;;38.10;69.30;;;;;;4975170;28;20438;-88
2023/08/20 09:04:25;;;;;;;12.63;10.10;;;37.00;74.00;;;;;;4976192;28;22431;-88
2023/08/20 09:06:52;;;;;;;16.30;11.67;;;37.90;76.30;;;;;;4974714;28;20274;-85
2023/08/20 09:09:18;;;;;;;11.87;10.60;;;38.20;72.80;;;;;;4976150;28;20454;-86
2023/08/20 09:11:45;;;;;;;12.10;11.00;;;39.30;68.80;;;;;;4977150;28;20447;-84
2023/08/20 09:14:28;;;;;;;12.43;11.07;;;41.20;66.70;;;;;;4971241;28;20438;-86
2023/08/20 09:17:00;;;;;;;10.63;9.73;;;42.60;60.50;;;;;;4988883;28;20441;-87
2023/08/20 09:19:30;;;;;;;13.67;10.87;;;42.90;57.80;;;;;;5004580;28;20450;-89
2023/08/20 09:21:58;;;;;;;12.70;11.50;;;41.00;59.10;;;;;;4988687;28;20500;-87
2023/08/20 09:24:42;;;;;;;15.27;11.00;;;40.90;60.40;;;;;;4989430;28;20549;-88
2023/08/20 09:27:09;;;;;;;11.77;10.50;;;40.60;60.80;;;;;;4990391;28;20834;-89
2023/08/20 09:29:48;;;;;;;57.17;36.70;;;40.30;60.70;;;;;;4978161;28;20439;-89
2023/08/20 09:32:20;;;;;;;23.10;16.87;;;39.90;65.00;;;;;;4992558;28;20445;-88
2023/08/20 09:34:47;;;;;;;13.80;11.80;;;40.30;62.30;;;;;;4991808;28;20459;-89
2023/08/20 09:37:14;;;;;;;13.77;12.13;;;39.50;62.50;;;;;;4988816;28;20457;-90
2023/08/20 09:39:44;;;;;;;17.40;11.37;;;38.30;66.40;;;;;;4991477;28;20450;-89
2023/08/20 09:42:11;;;;;;;14.30;12.93;;;38.10;68.70;;;;;;4985620;28;20730;-90
2023/08/20 09:44:39;;;;;;;21.43;11.67;;;37.80;70.20;;;;;;4979769;28;20883;-89
2023/08/20 09:47:10;;;;;;;14.03;11.20;;;39.00;72.00;;;;;;4979916;28;20467;-88
2023/08/20 09:49:46;;;;;;;13.53;10.30;;;38.30;71.80;;;;;;4979132;28;21396;-90
2023/08/20 09:52:40;;;;;;;10.83;9.23;;;40.00;66.90;;;;;;4979073;28;20441;-87
2023/08/20 09:55:15;;;;;;;12.03;10.67;;;41.00;61.10;;;;;;4971203;28;20457;-88
2023/08/20 09:57:48;;;;;;;12.57;11.37;;;39.50;66.50;;;;;;4972639;28;21001;-87
2023/08/20 10:00:21;;;;;;;15.27;11.73;;;39.30;68.40;;;;;;4980047;28;20431;-88
2023/08/20 10:02:52;;;;;;;10.87;9.20;;;39.00;69.40;;;;;;4976159;28;20433;-88
2023/08/20 10:05:20;;;;;;;14.60;11.10;;;38.80;67.20;;;;;;4984553;28;20557;-90
2023/08/20 10:07:55;;;;;;;11.87;8.83;;;39.20;64.90;;;;;;4983529;28;20461;-90
2023/08/20 10:10:23;;;;;;;12.43;8.53;;;40.50;62.40;;;;;;4980939;28;20462;-88
2023/08/20 10:12:49;;;;;;;10.40;9.40;;;41.50;61.40;;;;;;4977707;28;20445;-90
2023/08/20 10:15:15;;;;;;;9.77;8.87;;;41.80;58.60;;;;;;4981471;28;20667;-88
2023/08/20 10:17:42;;;;;;;12.53;8.70;;;41.90;55.60;;;;;;4979536;28;20203;-89
2023/08/20 10:20:39;;;;;;;9.50;8.50;;;41.70;56.00;;;;;;4983054;28;20529;-88
2023/08/20 10:23:12;;;;;;;14.63;8.70;;;40.30;57.50;;;;;;4972400;28;20935;-89
2023/08/20 10:25:52;;;;;;;8.97;8.07;;;38.20;60.30;;;;;;4982051;28;20525;-90
2023/08/20 10:28:28;;;;;;;11.33;7.83;;;36.70;60.00;;;;;;4973738;28;20484;-89
2023/08/20 10:31:17;;;;;;;12.13;8.57;;;36.60;61.60;;;;;;4975996;28;20735;-89
2023/08/20 10:33:57;;;;;;;10.80;8.20;;;35.30;66.40;;;;;;4975245;28;20431;-88
2023/08/20 10:36:28;;;;;;;13.63;8.00;;;35.10;68.60;;;;;;4984811;28;20443;-89
2023/08/20 10:38:58;;;;;;;7.70;7.00;;;34.30;70.10;;;;;;4978764;28;21057;-87
2023/08/20 10:41:29;;;;;;;12.43;8.13;;;33.80;74.50;;;;;;4979219;28;20446;-87
2023/08/20 10:44:02;;;;;;;10.83;8.63;;;33.50;77.60;;;;;;4993707;28;20453;-86
2023/08/20 10:46:30;;;;;;;15.33;7.90;;;33.50;79.20;;;;;;4980197;28;20566;-87
2023/08/20 10:49:02;;;;;;;9.40;7.53;;;34.00;81.50;;;;;;4996092;28;20676;-89
2023/08/20 10:51:36;;;;;;;12.67;8.83;;;32.80;80.70;;;;;;4982338;28;20850;-89
2023/08/20 10:54:06;;;;;;;14.43;8.40;;;34.20;87.10;;;;;;4978843;28;20432;-88
2023/08/20 10:57:00;;;;;;;15.10;9.13;;;32.60;89.60;;;;;;4982345;28;21051;-85
2023/08/20 10:59:30;;;;;;;11.70;8.10;;;32.80;90.30;;;;;;4984191;28;20444;-90
2023/08/20 11:01:57;;;;;;;10.83;9.20;;;33.10;88.70;;;;;;4981597;28;20447;-89
2023/08/20 11:04:27;;;;;;;13.80;8.30;;;33.20;86.80;;;;;;4972392;28;20850;-88
2023/08/20 11:06:55;;;;;;;8.67;7.70;;;33.10;87.60;;;;;;4976958;28;20718;-89
2023/08/20 11:09:25;;;;;;;9.83;8.90;;;32.90;86.70;;;;;;4968592;28;21701;-87
2023/08/20 11:11:51;;;;;;;10.60;8.17;;;32.60;86.60;;;;;;4975849;28;21226;-85
2023/08/20 11:14:19;;;;;;;7.93;7.13;;;32.50;90.30;;;;;;4989231;28;20450;-89
2023/08/20 11:16:46;;;;;;;12.80;7.70;;;32.70;91.70;;;;;;4978096;28;20183;-88
2023/08/20 11:19:13;;;;;;;13.33;7.70;;;33.00;88.50;;;;;;4979870;28;20428;-88
2023/08/20 11:21:40;;;;;;;12.77;7.73;;;33.30;90.50;;;;;;4971650;28;20567;-89
2023/08/20 11:24:11;;;;;;;12.83;7.60;;;33.60;90.60;;;;;;4965843;28;20464;-86
2023/08/20 11:26:40;;;;;;;10.07;8.07;;;33.90;85.50;;;;;;4969319;28;20457;-89
2023/08/20 11:29:10;;;;;;;9.20;7.77;;;34.00;86.30;;;;;;4978344;28;20514;-90
2023/08/20 11:31:36;;;;;;;8.07;7.37;;;34.10;87.60;;;;;;4976470;28;20438;-86
2023/08/20 11:34:07;;;;;;;10.20;7.10;;;34.00;82.10;;;;;;4977352;28;20446;-86
2023/08/20 11:36:33;;;;;;;9.23;6.80;;;33.90;86.00;;;;;;4982825;28;20529;-86
2023/08/20 11:38:58;;;;;;;8.47;7.60;;;33.50;84.60;;;;;;4971501;28;20465;-86
2023/08/20 11:41:25;;;;;;;14.50;6.83;;;33.70;86.10;;;;;;4968490;28;20189;-86
2023/08/20 11:43:52;;;;;;;10.37;6.93;;;33.80;85.90;;;;;;4969979;28;20595;-86
2023/08/20 11:46:20;;;;;;;11.57;7.10;;;33.90;86.50;;;;;;4976138;28;20449;-84
2023/08/20 11:49:06;;;;;;;10.80;7.83;;;33.90;86.30;;;;;;4976012;28;20470;-86
2023/08/20 11:51:39;;;;;;;10.53;7.40;;;33.50;85.80;;;;;;4969333;28;20559;-86
2023/08/20 11:54:13;;;;;;;7.37;6.60;;;33.20;88.70;;;;;;4967367;28;21239;-87
2023/08/20 11:56:52;;;;;;;10.33;7.17;;;33.30;86.00;;;;;;4965484;28;20482;-85
2023/08/20 11:59:19;;;;;;;10.87;6.90;;;33.20;79.80;;;;;;4970939;28;20468;-87
2023/08/20 12:02:00;;;;;;;8.07;7.20;;;33.30;80.80;;;;;;4973855;28;20445;-84
2023/08/20 12:04:27;;;;;;;7.97;7.03;;;33.30;81.60;;;;;;4970924;28;21017;-85
2023/08/20 12:07:13;;;;;;;9.47;7.70;;;33.30;82.50;;;;;;4976332;28;20513;-87
2023/08/20 12:09:38;;;;;;;9.23;7.37;;;33.50;80.30;;;;;;4971843;28;20476;-82
2023/08/20 12:12:06;;;;;;;10.33;7.00;;;33.70;82.40;;;;;;4967312;28;20485;-85
2023/08/20 12:14:32;;;;;;;13.90;6.77;;;33.70;80.60;;;;;;4968332;28;20190;-87
2023/08/20 12:16:58;;;;;;;8.60;6.90;;;33.80;80.00;;;;;;4972472;28;20880;-87
2023/08/20 12:19:24;;;;;;;11.10;6.77;;;33.70;82.20;;;;;;4970023;28;20683;-86
2023/08/20 12:21:49;;;;;;;14.27;7.63;;;33.90;87.00;;;;;;4975890;28;20439;-84
2023/08/20 12:24:15;;;;;;;8.20;7.40;;;32.90;88.60;;;;;;4975546;28;21003;-88
2023/08/20 12:26:41;;;;;;;7.83;7.03;;;33.00;89.10;;;;;;4968509;28;20198;-86
2023/08/20 12:29:07;;;;;;;13.40;7.77;;;33.20;90.20;;;;;;4972383;28;20304;-87
2023/08/20 12:31:33;;;;;;;8.17;6.97;;;33.00;88.80;;;;;;4981374;28;20187;-89
2023/08/20 12:33:59;;;;;;;8.40;7.57;;;33.40;88.50;;;;;;4972387;28;20439;-87
2023/08/20 12:36:25;;;;;;;8.63;7.50;;;33.50;84.80;;;;;;4971936;28;20498;-88
2023/08/20 12:38:50;;;;;;;8.23;7.23;;;33.90;86.00;;;;;;4975385;28;20625;-85
2023/08/20 12:41:16;;;;;;;12.67;7.17;;;34.10;83.30;;;;;;4974425;28;20348;-88
2023/08/20 12:43:42;;;;;;;8.67;7.20;;;33.60;84.80;;;;;;4973462;28;20186;-85